createdAt,value
2023-03-29T00:03:23.713Z,-4.64
2023-03-29T00:08:00.412Z,-4.69
2023-03-29T00:11:48.427Z,-4.73
2023-03-29T00:15:36.400Z,-4.78
2023-03-29T00:19:23.866Z,-4.83
2023-03-29T00:23:11.411Z,-4.90
2023-03-29T00:27:00.666Z,-4.95
2023-03-29T00:30:49.039Z,-4.98
2023-03-29T00:34:37.479Z,-5.06
2023-03-29T00:46:19.330Z,-5.19
2023-03-29T00:49:48.202Z,-5.24
2023-03-29T00:53:29.737Z,-5.29
2023-03-29T00:57:10.564Z,-5.36
2023-03-29T01:00:50.977Z,-5.42
2023-03-29T01:04:31.007Z,-5.48
2023-03-29T01:20:39.907Z,-5.48
2023-03-29T01:36:20.717Z,-5.33
2023-03-29T01:40:09.843Z,-5.33
2023-03-29T01:44:04.756Z,-5.31
2023-03-29T01:47:53.306Z,-5.30
2023-03-29T01:59:46.324Z,-5.33
2023-03-29T02:03:33.965Z,-5.31
2023-03-29T02:07:21.758Z,-5.32
2023-03-29T02:18:34.971Z,-5.37
2023-03-29T02:21:05.062Z,-5.39
2023-03-29T02:24:30.219Z,-5.42
2023-03-29T02:28:19.398Z,-5.43
2023-03-29T02:32:11.306Z,-5.44
2023-03-29T02:36:10.083Z,-5.46
2023-03-29T02:51:38.698Z,-5.50
2023-03-29T02:55:22.659Z,-5.50
2023-03-29T02:59:11.798Z,-5.51
2023-03-29T03:02:43.533Z,-5.54
2023-03-29T03:06:25.702Z,-5.59
2023-03-29T03:13:42.306Z,-5.69
2023-03-29T03:33:01.221Z,-5.89
2023-03-29T03:36:52.620Z,-5.87
2023-03-29T03:40:41.873Z,-5.87
2023-03-29T03:44:31.133Z,-5.88
2023-03-29T04:00:16.484Z,-6.01
2023-03-29T04:03:07.907Z,-6.06
2023-03-29T04:06:57.120Z,-6.11
2023-03-29T04:10:46.382Z,-6.15
2023-03-29T04:14:35.452Z,-5.70
2023-03-29T04:18:30.252Z,-4.86
2023-03-29T04:22:19.657Z,-4.30
2023-03-29T04:25:52.627Z,-3.87
2023-03-29T04:29:45.362Z,-3.52
2023-03-29T04:32:54.513Z,-3.22
2023-03-29T04:36:25.343Z,-3.06
2023-03-29T04:39:34.723Z,-2.85
2023-03-29T04:42:19.403Z,-2.67
2023-03-29T04:45:22.578Z,-2.57
2023-03-29T04:48:12.952Z,-2.44
2023-03-29T04:51:45.170Z,-2.26
2023-03-29T04:54:51.953Z,-2.11
2023-03-29T04:58:32.270Z,-1.96
2023-03-29T05:02:10.243Z,-1.82
2023-03-29T05:05:18.587Z,-1.70
2023-03-29T05:09:08.542Z,-1.58
2023-03-29T05:12:40.472Z,-1.41
2023-03-29T05:15:58.213Z,-1.25
2023-03-29T05:19:26.232Z,-1.15
2023-03-29T05:22:41.230Z,-0.97
2023-03-29T05:26:16.315Z,-0.79
2023-03-29T05:29:29.784Z,-0.64
2023-03-29T05:32:38.261Z,-0.47
2023-03-29T05:36:16.459Z,-0.28
2023-03-29T05:38:57.040Z,-0.11
2023-03-29T05:42:06.101Z,0.03
2023-03-29T05:44:55.605Z,0.28
2023-03-29T05:47:37.002Z,0.49
2023-03-29T05:51:08.206Z,0.70
2023-03-29T05:53:53.720Z,0.85
2023-03-29T05:57:32.805Z,1.06
2023-03-29T06:00:37.495Z,1.41
2023-03-29T06:04:06.372Z,1.79
2023-03-29T06:07:13.281Z,2.12
2023-03-29T06:10:25.486Z,2.51
2023-03-29T06:13:59.299Z,2.85
2023-03-29T06:16:53.139Z,3.26
2023-03-29T06:20:09.907Z,3.56
2023-03-29T06:22:55.040Z,3.82
2023-03-29T06:25:27.788Z,4.00
2023-03-29T06:28:44.639Z,4.17
2023-03-29T06:32:13.875Z,4.36
2023-03-29T06:35:50.066Z,4.50
2023-03-29T06:39:29.619Z,4.63
2023-03-29T06:43:01.205Z,4.79
2023-03-29T06:46:54.358Z,4.97
2023-03-29T06:50:15.500Z,5.11
2023-03-29T07:27:03.471Z,2.63
2023-03-29T07:30:54.764Z,2.68
2023-03-29T07:34:32.691Z,2.74
2023-03-29T07:38:18.950Z,2.82
2023-03-29T08:01:21.560Z,3.11
2023-03-29T08:04:48.284Z,3.19
2023-03-29T08:08:37.486Z,3.25
2023-03-29T08:12:29.482Z,3.39
2023-03-29T08:15:59.051Z,3.54
2023-03-29T08:19:59.582Z,3.61
2023-03-29T08:23:53.790Z,3.72
2023-03-29T08:27:25.248Z,3.84
2023-03-29T08:30:52.976Z,3.94
2023-03-29T08:34:50.479Z,4.06
2023-03-29T09:06:31.346Z,5.34
2023-03-29T09:10:15.024Z,5.42
2023-03-29T09:13:37.019Z,5.47
2023-03-29T09:17:00.620Z,5.55
2023-03-29T09:21:10.370Z,5.60
2023-03-29T09:24:58.418Z,5.84
2023-03-29T09:32:37.577Z,6.19
2023-03-29T09:36:44.785Z,6.25
2023-03-29T09:40:23.921Z,6.42
2023-03-29T09:48:11.916Z,6.83
2023-03-29T09:59:50.138Z,7.65
2023-03-29T10:03:37.725Z,7.89
2023-03-29T10:19:12.033Z,8.47
2023-03-29T10:22:59.639Z,8.59
2023-03-29T10:26:41.346Z,8.67
2023-03-29T10:30:30.637Z,8.88
2023-03-29T10:34:11.740Z,9.35
2023-03-29T10:38:01.281Z,9.76
2023-03-29T10:41:43.973Z,10.00
2023-03-29T10:45:13.056Z,10.22
2023-03-29T10:48:08.903Z,10.56
2023-03-29T10:51:35.590Z,10.69
2023-03-29T10:55:16.855Z,11.08
2023-03-29T10:58:57.644Z,11.48
2023-03-29T11:02:49.762Z,11.73
2023-03-29T11:06:14.692Z,12.04
2023-03-29T11:09:48.190Z,12.63
2023-03-29T11:13:44.311Z,12.83
2023-03-29T11:33:03.908Z,15.31
2023-03-29T11:36:29.094Z,15.80
2023-03-29T11:40:30.015Z,16.74
2023-03-29T11:44:24.040Z,17.14
2023-03-29T11:47:59.746Z,17.69
2023-03-29T12:03:44.754Z,17.40
2023-03-29T12:07:18.730Z,16.58
2023-03-29T12:10:44.721Z,15.87
2023-03-29T12:13:52.570Z,15.48
2023-03-29T12:23:20.711Z,15.44
2023-03-29T12:26:52.674Z,14.82
2023-03-29T12:30:27.365Z,14.30
2023-03-29T12:34:02.947Z,14.08
2023-03-29T12:37:33.392Z,13.57
2023-03-29T12:59:41.150Z,13.32
2023-03-29T13:03:27.647Z,14.04
2023-03-29T13:07:02.619Z,14.78
2023-03-29T13:22:07.045Z,14.14
2023-03-29T13:25:49.203Z,14.56
2023-03-29T13:30:02.118Z,15.24
2023-03-29T13:33:42.407Z,15.81
2023-03-29T13:37:32.829Z,16.81
2023-03-29T13:41:34.443Z,17.66
2023-03-29T13:45:36.845Z,18.49
2023-03-29T13:52:37.350Z,18.40
2023-03-29T13:56:28.993Z,18.10
2023-03-29T14:00:19.562Z,17.74
2023-03-29T14:34:54.152Z,22.05
2023-03-29T14:38:24.685Z,21.67
2023-03-29T14:42:14.305Z,20.26
2023-03-29T14:45:46.591Z,18.23
2023-03-29T14:49:06.800Z,16.24
2023-03-29T14:52:50.322Z,14.78
2023-03-29T14:56:24.719Z,13.78
2023-03-29T14:59:47.125Z,13.12
2023-03-29T15:03:31.090Z,12.48
2023-03-29T15:06:44.282Z,11.72
2023-03-29T15:25:50.868Z,10.21
2023-03-29T15:29:30.107Z,10.13
2023-03-29T15:33:14.789Z,10.04
2023-03-29T15:36:45.662Z,9.94
2023-03-29T15:39:53.173Z,9.81
2023-03-29T15:43:27.112Z,9.74
2023-03-29T15:46:58.765Z,9.64
2023-03-29T15:50:14.864Z,9.51
2023-03-29T15:54:04.384Z,9.40
2023-03-29T15:56:45.127Z,9.23
2023-03-29T15:59:13.686Z,9.12
2023-03-29T16:02:28.545Z,9.05
2023-03-29T16:05:57.393Z,8.92
2023-03-29T16:09:35.701Z,8.77
2023-03-29T16:12:37.905Z,8.59
2023-03-29T16:16:05.332Z,8.42
2023-03-29T16:19:16.010Z,8.27
2023-03-29T16:23:07.963Z,8.13
2023-03-29T16:26:39.800Z,8.00
2023-03-29T16:30:42.129Z,7.85
2023-03-29T16:34:29.764Z,7.73
2023-03-29T16:37:52.056Z,7.62
2023-03-29T16:41:23.629Z,7.51
2023-03-29T16:45:13.093Z,7.43
2023-03-29T16:48:45.970Z,7.38
2023-03-29T16:51:55.222Z,7.32
2023-03-29T16:55:43.083Z,7.29
2023-03-29T16:59:12.636Z,7.23
2023-03-29T17:02:42.095Z,7.19
2023-03-29T17:06:27.800Z,7.15
2023-03-29T17:10:10.509Z,7.10
2023-03-29T17:13:59.778Z,7.07
2023-03-29T17:17:49.237Z,7.03
2023-03-29T17:22:05.972Z,6.97
2023-03-29T17:25:30.849Z,6.93
2023-03-29T17:29:23.422Z,6.88
2023-03-29T17:33:12.646Z,6.83
2023-03-29T17:40:57.539Z,6.70
2023-03-29T17:44:46.523Z,6.65
2023-03-29T17:48:35.761Z,6.61
2023-03-29T17:52:25.366Z,6.56
2023-03-29T17:56:14.512Z,6.53
2023-03-29T17:59:52.444Z,6.50
2023-03-29T18:03:32.578Z,6.48
2023-03-29T18:07:21.617Z,6.44
2023-03-29T18:10:50.851Z,6.38
2023-03-29T18:18:47.686Z,6.19
2023-03-29T18:22:36.978Z,6.11
2023-03-29T18:26:26.921Z,6.04
2023-03-29T18:30:16.158Z,6.00
2023-03-29T18:34:05.295Z,5.96
2023-03-29T18:37:54.591Z,5.91
2023-03-29T18:41:46.416Z,5.85
2023-03-29T18:45:35.924Z,5.80
2023-03-29T18:49:17.975Z,5.72
2023-03-29T18:53:07.976Z,5.66
2023-03-29T18:56:59.383Z,5.62
2023-03-29T19:12:40.491Z,5.46
2023-03-29T19:16:23.864Z,5.43
2023-03-29T19:20:13.332Z,5.38
2023-03-29T19:23:51.726Z,5.35
2023-03-29T19:27:40.758Z,5.31
2023-03-29T19:31:29.858Z,5.29
2023-03-29T19:35:19.135Z,5.29
2023-03-29T19:39:08.316Z,5.28
2023-03-29T19:42:36.170Z,5.24
2023-03-29T19:46:08.347Z,5.22
2023-03-29T19:49:50.522Z,5.19
2023-03-29T19:52:39.065Z,5.16
2023-03-29T19:55:42.393Z,5.14
2023-03-29T19:59:19.862Z,5.13
2023-03-29T20:02:17.217Z,5.10
2023-03-29T20:05:42.207Z,5.11
2023-03-29T20:09:14.456Z,5.13
2023-03-29T20:12:57.709Z,5.16
2023-03-29T20:16:46.916Z,5.18
2023-03-29T20:20:36.483Z,5.19
2023-03-29T20:24:25.900Z,5.22
2023-03-29T20:28:15.122Z,5.21
2023-03-29T20:32:04.285Z,5.23
2023-03-29T20:35:53.719Z,5.26
2023-03-29T20:39:37.545Z,5.32
2023-03-29T20:43:26.815Z,5.40
2023-03-29T20:47:24.910Z,5.43
2023-03-29T20:51:14.139Z,5.43
2023-03-29T20:55:03.185Z,5.42
2023-03-29T20:58:52.791Z,5.43
2023-03-29T21:02:41.867Z,5.45
2023-03-29T21:06:31.089Z,5.48
2023-03-29T21:10:20.315Z,5.51
2023-03-29T21:18:05.266Z,5.57
2023-03-29T21:21:47.211Z,5.61
2023-03-29T21:25:36.178Z,5.62
2023-03-29T21:29:24.650Z,5.63
2023-03-29T21:32:38.678Z,5.66
2023-03-29T21:36:27.656Z,5.69
2023-03-29T21:40:44.102Z,5.72
2023-03-29T21:44:34.245Z,5.72
2023-03-29T21:48:03.232Z,5.72
2023-03-29T21:51:45.501Z,5.74
2023-03-29T21:55:34.566Z,5.77
2023-03-29T21:59:23.550Z,5.81
2023-03-29T22:03:12.577Z,5.85
2023-03-29T22:07:00.143Z,5.87
2023-03-29T22:22:19.847Z,5.80
2023-03-29T22:26:08.982Z,5.81
2023-03-29T22:29:58.153Z,5.82
2023-03-29T22:33:47.055Z,5.82
2023-03-29T22:36:37.159Z,5.81
2023-03-29T22:39:45.773Z,5.81
2023-03-29T23:10:31.984Z,5.89
2023-03-29T23:14:21.334Z,5.90
2023-03-29T23:18:10.471Z,5.92
2023-03-29T23:21:59.762Z,5.94
2023-03-29T23:25:48.989Z,5.97
2023-03-29T23:29:38.125Z,6.00
2023-03-29T23:33:27.950Z,6.02
2023-03-29T23:37:16.927Z,6.02
2023-03-29T23:41:09.126Z,6.01
2023-03-29T23:44:58.442Z,5.99
2023-03-29T23:48:47.399Z,5.97
2023-03-29T23:52:36.885Z,5.97
2023-03-29T23:56:25.932Z,5.96
